createdAt,value
2022-09-26T00:01:37.987Z,66.94
2022-09-26T00:04:32.587Z,65.61
2022-09-26T00:07:00.863Z,65.02
2022-09-26T00:09:28.972Z,65.71
2022-09-26T00:11:56.924Z,66.55
2022-09-26T00:14:27.529Z,65.66
2022-09-26T00:16:55.847Z,65.28
2022-09-26T00:19:23.519Z,64.63
2022-09-26T00:21:51.407Z,64.48
2022-09-26T00:24:19.617Z,64.79
2022-09-26T00:26:47.264Z,64.42
2022-09-26T00:29:14.914Z,64.70
2022-09-26T00:31:46.012Z,65.53
2022-09-26T00:34:16.455Z,65.52
2022-09-26T00:36:44.456Z,66.38
2022-09-26T00:39:14.359Z,65.57
2022-09-26T00:41:42.457Z,66.00
2022-09-26T00:44:43.953Z,66.57
2022-09-26T00:47:46.451Z,67.21
2022-09-26T00:50:29.059Z,65.70
2022-09-26T00:53:02.859Z,65.12
2022-09-26T00:55:36.344Z,64.77
2022-09-26T00:58:52.067Z,64.66
2022-09-26T01:01:20.775Z,64.95
2022-09-26T01:03:50.346Z,65.40
2022-09-26T01:06:18.827Z,65.54
2022-09-26T01:08:53.968Z,66.05
2022-09-26T01:11:22.799Z,66.70
2022-09-26T01:13:54.566Z,65.89
2022-09-26T01:16:24.056Z,65.31
2022-09-26T01:18:51.936Z,65.33
2022-09-26T01:21:48.776Z,65.36
2022-09-26T01:24:48.133Z,65.49
2022-09-26T01:27:24.499Z,67.13
2022-09-26T01:30:05.715Z,68.64
2022-09-26T01:32:58.296Z,66.43
2022-09-26T01:35:39.158Z,67.70
2022-09-26T01:38:25.067Z,67.32
2022-09-26T01:40:53.057Z,67.27
2022-09-26T01:43:52.752Z,67.64
2022-09-26T01:46:56.819Z,68.74
2022-09-26T01:49:46.821Z,69.79
2022-09-26T01:52:50.284Z,69.77
2022-09-26T01:55:23.896Z,67.90
2022-09-26T01:58:10.133Z,68.04
2022-09-26T02:00:41.850Z,67.81
2022-09-26T02:03:17.226Z,69.10
2022-09-26T02:05:52.907Z,70.49
2022-09-26T02:08:27.929Z,71.67
2022-09-26T02:11:07.974Z,72.02
2022-09-26T02:13:43.748Z,71.54
2022-09-26T02:16:19.544Z,71.58
2022-09-26T02:18:57.089Z,73.81
2022-09-26T02:21:25.092Z,72.18
2022-09-26T02:23:54.475Z,71.87
2022-09-26T02:26:23.979Z,73.17
2022-09-26T02:28:52.601Z,72.31
2022-09-26T02:31:24.593Z,73.10
2022-09-26T02:33:54.071Z,72.38
2022-09-26T02:36:24.122Z,74.67
2022-09-26T02:38:53.361Z,74.17
2022-09-26T02:41:43.374Z,73.20
2022-09-26T02:44:45.739Z,73.22
2022-09-26T02:47:32.987Z,73.27
2022-09-26T02:50:25.573Z,74.73
2022-09-26T02:53:19.165Z,76.10
2022-09-26T02:56:17.719Z,73.92
2022-09-26T02:59:10.271Z,74.52
2022-09-26T03:01:55.053Z,74.53
2022-09-26T03:04:55.407Z,73.67
2022-09-26T03:07:46.318Z,75.92
2022-09-26T03:10:15.021Z,73.79
2022-09-26T03:12:45.188Z,74.63
2022-09-26T03:15:14.509Z,74.19
2022-09-26T03:17:47.728Z,74.31
2022-09-26T03:20:21.691Z,74.87
2022-09-26T03:22:49.739Z,74.31
2022-09-26T03:25:24.632Z,75.97
2022-09-26T03:27:53.996Z,74.92
2022-09-26T03:30:23.373Z,74.82
2022-09-26T03:32:51.923Z,74.70
2022-09-26T03:35:19.454Z,75.09
2022-09-26T03:37:48.091Z,73.29
2022-09-26T03:40:16.091Z,74.11
2022-09-26T03:42:46.838Z,74.39
2022-09-26T03:45:15.025Z,73.52
2022-09-26T03:47:44.131Z,73.79
2022-09-26T03:50:14.130Z,72.92
2022-09-26T03:52:42.670Z,74.07
2022-09-26T03:55:10.210Z,74.48
2022-09-26T03:57:37.707Z,75.32
2022-09-26T04:00:08.445Z,75.65
2022-09-26T04:02:44.479Z,75.68
2022-09-26T04:05:13.106Z,74.66
2022-09-26T04:07:40.842Z,74.00
2022-09-26T04:10:11.052Z,72.51
2022-09-26T04:12:39.952Z,73.25
2022-09-26T04:15:08.208Z,74.28
2022-09-26T04:17:36.455Z,73.94
2022-09-26T04:20:05.049Z,73.78
2022-09-26T04:22:33.653Z,72.33
2022-09-26T04:25:01.266Z,72.21
2022-09-26T04:27:30.612Z,72.69
2022-09-26T04:29:58.208Z,72.18
2022-09-26T04:32:26.282Z,75.39
2022-09-26T04:34:58.407Z,74.53
2022-09-26T04:37:25.960Z,75.47
2022-09-26T04:39:53.803Z,75.48
2022-09-26T04:42:22.133Z,75.02
2022-09-26T04:44:49.688Z,75.10
2022-09-26T04:47:17.769Z,74.33
2022-09-26T04:49:47.019Z,75.90
2022-09-26T04:52:15.231Z,75.13
2022-09-26T04:54:43.059Z,74.07
2022-09-26T04:57:19.354Z,74.70
2022-09-26T04:59:47.577Z,75.02
2022-09-26T05:02:15.802Z,75.39
2022-09-26T05:04:43.606Z,76.31
2022-09-26T05:07:11.991Z,76.19
2022-09-26T05:09:40.031Z,75.13
2022-09-26T05:12:07.664Z,76.00
2022-09-26T05:14:36.582Z,75.54
2022-09-26T05:17:04.712Z,76.17
2022-09-26T05:19:32.980Z,76.41
2022-09-26T05:22:02.206Z,77.14
2022-09-26T05:24:49.262Z,76.04
2022-09-26T05:27:18.659Z,78.33
2022-09-26T05:29:46.641Z,79.45
2022-09-26T05:32:16.229Z,78.79
2022-09-26T05:34:43.893Z,79.64
2022-09-26T05:37:12.581Z,78.95
2022-09-26T05:39:59.078Z,78.08
2022-09-26T05:42:27.579Z,76.90
2022-09-26T05:44:55.155Z,77.96
2022-09-26T05:47:23.497Z,80.17
2022-09-26T05:49:51.361Z,80.58
2022-09-26T05:52:19.051Z,79.80
2022-09-26T05:54:46.645Z,80.95
2022-09-26T05:57:19.103Z,83.86
2022-09-26T05:59:46.982Z,81.74
2022-09-26T06:02:20.660Z,81.98
2022-09-26T06:04:49.478Z,79.69
2022-09-26T06:07:18.829Z,78.39
2022-09-26T06:09:46.943Z,77.07
2022-09-26T06:12:14.771Z,77.08
2022-09-26T06:14:46.826Z,79.86
2022-09-26T06:17:14.661Z,78.41
2022-09-26T06:19:44.513Z,77.97
2022-09-26T06:22:12.114Z,78.23
2022-09-26T06:24:39.697Z,80.16
2022-09-26T06:27:10.949Z,79.44
2022-09-26T06:29:39.287Z,78.66
2022-09-26T06:32:06.935Z,79.04
2022-09-26T06:34:35.921Z,80.08
2022-09-26T06:37:04.689Z,79.78
2022-09-26T06:39:37.039Z,78.97
2022-09-26T06:42:07.486Z,79.42
2022-09-26T06:44:35.333Z,79.29
2022-09-26T06:47:03.236Z,81.60
2022-09-26T06:49:31.559Z,81.73
2022-09-26T06:52:01.940Z,83.25
2022-09-26T06:54:29.620Z,81.41
2022-09-26T06:56:57.403Z,80.14
2022-09-26T06:59:25.151Z,80.23
2022-09-26T07:01:54.337Z,79.90
2022-09-26T07:04:27.374Z,80.45
2022-09-26T07:06:58.355Z,83.59
2022-09-26T07:09:31.173Z,83.84
2022-09-26T07:12:16.479Z,81.68
2022-09-26T07:14:44.504Z,81.71
2022-09-26T07:17:18.181Z,80.82
2022-09-26T07:19:51.942Z,82.71
2022-09-26T07:22:19.864Z,82.05
2022-09-26T07:24:50.285Z,84.26
2022-09-26T07:27:18.219Z,83.23
2022-09-26T07:29:47.282Z,84.21
2022-09-26T07:32:16.065Z,81.19
2022-09-26T07:34:43.998Z,81.81
2022-09-26T07:37:11.999Z,81.88
2022-09-26T07:39:40.194Z,81.81
2022-09-26T07:42:09.700Z,82.24
2022-09-26T07:47:43.954Z,81.40
2022-09-26T07:50:17.726Z,82.58
2022-09-26T07:52:47.519Z,82.58
2022-09-26T07:55:22.461Z,84.05
2022-09-26T07:57:53.464Z,85.77
2022-09-26T08:00:21.596Z,83.60
2022-09-26T08:02:52.827Z,85.52
2022-09-26T08:05:20.830Z,85.86
2022-09-26T08:07:49.410Z,86.96
2022-09-26T08:10:22.033Z,87.12
2022-09-26T08:12:51.947Z,85.90
2022-09-26T08:15:20.417Z,87.69
2022-09-26T08:17:48.917Z,86.40
2022-09-26T08:20:16.790Z,89.02
2022-09-26T08:22:44.316Z,87.36
2022-09-26T08:25:12.642Z,87.02
2022-09-26T08:27:43.595Z,88.70
2022-09-26T08:30:11.744Z,89.57
2022-09-26T08:32:39.537Z,90.22
2022-09-26T08:35:14.928Z,91.95
2022-09-26T08:37:44.230Z,92.68
2022-09-26T08:40:32.406Z,90.39
2022-09-26T08:43:16.286Z,89.81
2022-09-26T08:46:31.794Z,89.71
2022-09-26T08:49:16.634Z,91.88
2022-09-26T08:51:49.601Z,93.52
2022-09-26T08:54:22.245Z,94.46
2022-09-26T08:56:55.717Z,92.24
2022-09-26T08:59:27.879Z,90.61
2022-09-26T09:02:02.320Z,89.20
2022-09-26T09:04:44.638Z,88.50
2022-09-26T09:07:24.597Z,90.94
2022-09-26T09:09:59.363Z,90.67
2022-09-26T09:12:43.117Z,90.75
2022-09-26T09:15:49.681Z,91.25
2022-09-26T09:18:54.937Z,94.74
2022-09-26T09:21:30.189Z,94.58
2022-09-26T09:23:58.780Z,93.41
2022-09-26T09:29:58.038Z,90.89
2022-09-26T09:32:35.313Z,90.20
2022-09-26T09:35:04.391Z,89.83
2022-09-26T09:37:44.049Z,89.16
2022-09-26T09:40:31.988Z,89.23
2022-09-26T09:43:18.235Z,89.53
2022-09-26T09:45:51.449Z,89.52
2022-09-26T09:48:19.871Z,89.59
2022-09-26T09:51:12.907Z,90.49
2022-09-26T09:54:24.530Z,90.77
2022-09-26T09:57:10.691Z,91.31
2022-09-26T10:00:22.277Z,89.16
2022-09-26T10:03:19.104Z,89.47
2022-09-26T10:05:51.697Z,90.97
2022-09-26T10:08:28.666Z,89.08
2022-09-26T10:11:07.944Z,88.47
2022-09-26T10:13:42.710Z,89.86
2022-09-26T10:16:15.338Z,89.97
2022-09-26T10:19:03.613Z,88.26
2022-09-26T10:21:36.923Z,89.39
2022-09-26T10:24:07.218Z,90.49
2022-09-26T10:26:37.255Z,87.90
2022-09-26T10:29:21.899Z,87.41
2022-09-26T10:31:56.393Z,88.11
2022-09-26T10:34:28.122Z,89.44
2022-09-26T10:36:57.038Z,89.35
2022-09-26T10:39:48.621Z,90.76
2022-09-26T10:42:22.396Z,90.16
2022-09-26T10:44:57.267Z,87.91
2022-09-26T10:47:31.040Z,88.48
2022-09-26T10:50:11.962Z,89.28
2022-09-26T10:52:49.705Z,87.61
2022-09-26T10:55:24.807Z,88.63
2022-09-26T10:57:56.880Z,90.44
2022-09-26T11:00:43.663Z,91.60
2022-09-26T11:03:16.375Z,90.06
2022-09-26T11:05:57.770Z,90.77
2022-09-26T11:08:34.415Z,87.03
2022-09-26T11:11:08.967Z,88.06
2022-09-26T11:13:50.072Z,89.74
2022-09-26T11:16:20.332Z,89.42
2022-09-26T11:19:22.296Z,88.42
2022-09-26T11:21:51.461Z,87.82
2022-09-26T11:24:28.915Z,89.40
2022-09-26T11:27:19.440Z,87.59
2022-09-26T11:30:02.225Z,87.61
2022-09-26T11:32:38.783Z,87.45
2022-09-26T11:35:17.780Z,87.89
2022-09-26T11:38:09.642Z,87.80
2022-09-26T11:40:52.263Z,87.25
2022-09-26T11:43:39.543Z,85.14
2022-09-26T11:46:35.087Z,84.99
2022-09-26T11:49:16.061Z,86.16
2022-09-26T11:51:51.301Z,86.05
2022-09-26T11:54:33.906Z,86.99
2022-09-26T11:57:08.677Z,85.76
2022-09-26T12:00:01.850Z,86.84
2022-09-26T12:02:56.173Z,86.52
2022-09-26T12:05:38.226Z,84.41
2022-09-26T12:08:21.797Z,85.99
2022-09-26T12:11:24.676Z,84.39
2022-09-26T12:14:09.340Z,83.17
2022-09-26T12:16:58.805Z,83.95
2022-09-26T12:19:40.924Z,82.18
2022-09-26T12:22:31.063Z,81.30
2022-09-26T12:25:11.269Z,82.30
2022-09-26T12:27:58.801Z,80.67
2022-09-26T12:30:40.392Z,80.80
2022-09-26T12:33:08.134Z,82.58
2022-09-26T12:35:43.874Z,81.74
2022-09-26T12:38:28.457Z,81.94
2022-09-26T12:41:40.751Z,82.01
2022-09-26T12:44:23.501Z,79.66
2022-09-26T12:47:09.474Z,80.66
2022-09-26T12:49:55.128Z,81.51
2022-09-26T12:52:42.231Z,80.77
2022-09-26T12:55:33.122Z,78.98
2022-09-26T12:58:06.431Z,79.38
2022-09-26T13:00:43.138Z,78.78
2022-09-26T13:03:35.526Z,77.51
2022-09-26T13:06:23.164Z,78.72
2022-09-26T13:08:53.936Z,77.46
2022-09-26T13:11:49.163Z,77.39
2022-09-26T13:14:38.753Z,76.51
2022-09-26T13:17:19.851Z,76.71
2022-09-26T13:19:59.121Z,75.31
2022-09-26T13:22:47.815Z,76.43
2022-09-26T13:25:19.956Z,75.81
2022-09-26T13:28:05.270Z,75.61
2022-09-26T13:30:36.586Z,74.13
2022-09-26T13:33:20.733Z,75.78
2022-09-26T13:35:52.012Z,75.13
2022-09-26T13:38:39.154Z,74.37
2022-09-26T13:41:22.739Z,74.86
2022-09-26T13:44:03.484Z,74.07
2022-09-26T13:46:46.262Z,73.97
2022-09-26T13:49:34.023Z,75.26
2022-09-26T13:52:27.810Z,74.78
2022-09-26T13:55:03.320Z,76.22
2022-09-26T13:57:39.695Z,75.05
2022-09-26T14:00:35.711Z,74.26
2022-09-26T14:03:12.885Z,76.32
2022-09-26T14:05:44.104Z,75.56
2022-09-26T14:08:43.032Z,75.78
2022-09-26T14:11:19.666Z,75.11
2022-09-26T14:13:48.653Z,74.62
2022-09-26T14:16:28.773Z,73.87
2022-09-26T14:19:05.077Z,74.61
2022-09-26T14:21:57.319Z,73.92
2022-09-26T14:24:41.562Z,74.83
2022-09-26T14:27:12.005Z,74.39
2022-09-26T14:29:39.815Z,75.80
2022-09-26T14:32:10.456Z,75.50
2022-09-26T14:34:49.252Z,75.70
2022-09-26T14:37:25.693Z,75.22
2022-09-26T14:40:14.530Z,74.01
2022-09-26T14:42:42.352Z,72.83
2022-09-26T14:45:16.579Z,73.47
2022-09-26T14:47:49.171Z,74.17
2022-09-26T14:50:24.994Z,73.56
2022-09-26T14:52:57.997Z,73.44
2022-09-26T14:55:27.111Z,75.64
2022-09-26T14:58:15.629Z,74.04
2022-09-26T15:00:48.239Z,74.87
2022-09-26T15:03:19.542Z,74.10
2022-09-26T15:05:48.012Z,73.80
2022-09-26T15:08:32.911Z,74.56
2022-09-26T15:11:02.616Z,73.80
2022-09-26T15:13:36.245Z,73.56
2022-09-26T15:16:12.818Z,73.71
2022-09-26T15:18:45.239Z,73.96
2022-09-26T15:21:44.684Z,74.09
2022-09-26T15:24:41.965Z,74.91
2022-09-26T15:27:20.122Z,74.41
2022-09-26T15:29:54.721Z,73.84
2022-09-26T15:32:26.908Z,75.49
2022-09-26T15:34:56.922Z,73.09
2022-09-26T15:37:26.139Z,73.23
2022-09-26T15:39:53.715Z,73.89
2022-09-26T15:42:53.702Z,74.16
2022-09-26T15:45:34.395Z,74.32
2022-09-26T15:48:20.459Z,74.46
2022-09-26T15:51:07.475Z,75.80
2022-09-26T15:53:41.008Z,75.85
2022-09-26T15:56:13.870Z,76.21
2022-09-26T15:59:02.014Z,76.51
2022-09-26T16:01:31.516Z,76.12
2022-09-26T16:04:16.763Z,76.26
2022-09-26T16:06:56.712Z,75.97
2022-09-26T16:09:38.883Z,75.26
2022-09-26T16:12:15.479Z,74.16
2022-09-26T16:14:58.698Z,74.66
2022-09-26T16:17:28.956Z,75.02
2022-09-26T16:20:01.704Z,75.26
2022-09-26T16:22:45.614Z,75.11
2022-09-26T16:25:23.051Z,75.52
2022-09-26T16:27:58.166Z,75.56
2022-09-26T16:30:27.172Z,75.90
2022-09-26T16:32:59.358Z,75.49
2022-09-26T16:35:29.680Z,76.04
2022-09-26T16:38:01.646Z,76.30
2022-09-26T16:40:31.764Z,77.28
2022-09-26T16:43:35.151Z,75.68
2022-09-26T16:46:14.871Z,75.64
2022-09-26T16:48:42.766Z,75.61
2022-09-26T16:51:13.967Z,75.42
2022-09-26T16:53:47.118Z,76.49
2022-09-26T16:56:18.000Z,76.26
2022-09-26T16:58:51.402Z,77.01
2022-09-26T17:01:38.022Z,77.12
2022-09-26T17:04:11.769Z,75.91
2022-09-26T17:06:39.837Z,76.10
2022-09-26T17:09:17.547Z,77.92
2022-09-26T17:11:47.833Z,77.79
2022-09-26T17:14:22.397Z,80.45
2022-09-26T17:16:55.247Z,79.66
2022-09-26T17:19:25.144Z,79.04
2022-09-26T17:21:53.430Z,78.71
2022-09-26T17:24:25.685Z,79.32
2022-09-26T17:26:59.413Z,78.28
2022-09-26T17:29:42.942Z,78.86
2022-09-26T17:32:33.279Z,78.29
2022-09-26T17:35:12.565Z,79.12
2022-09-26T17:37:40.473Z,77.29
2022-09-26T17:40:20.838Z,77.36
2022-09-26T17:42:50.920Z,79.17
2022-09-26T17:45:19.584Z,79.59
2022-09-26T17:47:47.583Z,78.89
2022-09-26T17:50:26.439Z,77.65
2022-09-26T17:52:54.319Z,78.51
2022-09-26T17:55:24.558Z,77.93
2022-09-26T17:57:52.298Z,77.80
2022-09-26T18:00:21.131Z,77.09
2022-09-26T18:02:52.884Z,77.37
2022-09-26T18:05:22.639Z,78.76
2022-09-26T18:07:53.326Z,77.92
2022-09-26T18:10:33.191Z,79.28
2022-09-26T18:13:12.965Z,78.99
2022-09-26T18:15:41.586Z,79.97
2022-09-26T18:18:14.496Z,79.50
2022-09-26T18:20:42.938Z,79.40
2022-09-26T18:23:16.427Z,78.01
2022-09-26T18:25:47.234Z,77.61
2022-09-26T18:28:17.594Z,78.10
2022-09-26T18:30:49.570Z,76.32
2022-09-26T18:33:19.595Z,77.93
2022-09-26T18:35:48.877Z,77.91
2022-09-26T18:38:17.042Z,78.73
2022-09-26T18:40:54.822Z,78.90
2022-09-26T18:43:25.185Z,79.37
2022-09-26T18:45:53.055Z,80.09
2022-09-26T18:48:20.592Z,76.79
2022-09-26T18:50:49.106Z,77.10
2022-09-26T18:53:19.693Z,79.15
2022-09-26T18:56:06.421Z,78.80
2022-09-26T18:58:35.632Z,78.79
2022-09-26T19:01:26.480Z,79.62
2022-09-26T19:03:57.426Z,79.05
2022-09-26T19:06:32.072Z,78.83
2022-09-26T19:09:02.769Z,79.02
2022-09-26T19:11:33.409Z,78.26
2022-09-26T19:14:26.920Z,80.01
2022-09-26T19:16:55.615Z,77.39
2022-09-26T19:19:24.584Z,78.19
2022-09-26T19:21:56.202Z,78.19
2022-09-26T19:24:35.471Z,76.79
2022-09-26T19:27:18.724Z,77.08
2022-09-26T19:29:57.098Z,79.16
2022-09-26T19:32:33.137Z,78.49
2022-09-26T19:35:06.080Z,79.15
2022-09-26T19:37:33.797Z,78.02
2022-09-26T19:40:01.837Z,78.40
2022-09-26T19:42:29.632Z,76.21
2022-09-26T19:44:59.210Z,77.86
2022-09-26T19:47:30.138Z,78.73
2022-09-26T19:49:57.874Z,79.49
2022-09-26T19:52:25.631Z,81.17
2022-09-26T19:54:54.532Z,80.07
2022-09-26T19:57:23.229Z,78.18
2022-09-26T19:59:51.618Z,77.59
2022-09-26T20:02:24.195Z,77.70
2022-09-26T20:04:52.255Z,77.25
2022-09-26T20:07:20.143Z,78.05
2022-09-26T20:09:47.947Z,76.89
2022-09-26T20:12:16.106Z,76.94
2022-09-26T20:14:43.672Z,78.91
2022-09-26T20:17:23.383Z,77.96
2022-09-26T20:19:57.748Z,78.55
2022-09-26T20:22:26.657Z,79.11
2022-09-26T20:24:55.817Z,79.44
2022-09-26T20:27:26.455Z,78.93
2022-09-26T20:30:14.662Z,78.61
2022-09-26T20:32:42.802Z,77.70
2022-09-26T20:35:14.303Z,76.48
2022-09-26T20:37:42.749Z,76.09
2022-09-26T20:40:18.439Z,75.99
2022-09-26T20:42:50.713Z,77.22
2022-09-26T20:45:25.504Z,77.97
2022-09-26T20:47:53.378Z,77.73
2022-09-26T20:50:21.480Z,76.62
2022-09-26T20:52:49.536Z,75.57
2022-09-26T20:55:19.301Z,75.11
2022-09-26T20:57:48.038Z,77.14
2022-09-26T21:00:21.041Z,77.55
2022-09-26T21:02:52.408Z,75.67
2022-09-26T21:05:24.522Z,76.26
2022-09-26T21:07:54.340Z,76.96
2022-09-26T21:10:33.020Z,77.42
2022-09-26T21:13:01.684Z,76.11
2022-09-26T21:15:31.475Z,74.29
2022-09-26T21:18:01.011Z,73.45
2022-09-26T21:20:32.159Z,73.40
2022-09-26T21:23:02.004Z,73.69
2022-09-26T21:25:31.925Z,74.15
2022-09-26T21:28:15.629Z,73.97
2022-09-26T21:30:43.727Z,73.32
2022-09-26T21:33:13.611Z,73.54
2022-09-26T21:35:41.757Z,73.24
2022-09-26T21:38:10.277Z,72.79
2022-09-26T21:40:40.399Z,74.95
2022-09-26T21:43:14.001Z,74.37
2022-09-26T21:45:46.255Z,72.72
2022-09-26T21:48:15.288Z,72.61
2022-09-26T21:50:57.598Z,73.85
2022-09-26T21:53:51.573Z,74.05
2022-09-26T21:56:25.743Z,73.55
2022-09-26T21:58:53.480Z,75.08
2022-09-26T22:01:21.951Z,73.35
2022-09-26T22:03:49.901Z,74.10
2022-09-26T22:06:17.533Z,75.33
2022-09-26T22:08:45.128Z,73.64
2022-09-26T22:11:14.319Z,73.15
2022-09-26T22:13:41.957Z,72.53
2022-09-26T22:16:11.987Z,72.80
2022-09-26T22:18:40.444Z,72.35
2022-09-26T22:21:11.015Z,71.57
2022-09-26T22:23:38.870Z,73.94
2022-09-26T22:26:07.431Z,74.41
2022-09-26T22:28:35.119Z,73.70
2022-09-26T22:31:05.119Z,73.88
2022-09-26T22:33:33.957Z,73.94
2022-09-26T22:36:01.883Z,76.72
2022-09-26T22:38:29.993Z,75.55
2022-09-26T22:40:59.800Z,73.93
2022-09-26T22:43:27.983Z,73.24
2022-09-26T22:46:03.249Z,76.39
2022-09-26T22:48:36.050Z,74.92
2022-09-26T22:51:04.698Z,74.87
2022-09-26T22:53:35.470Z,75.85
2022-09-26T22:56:08.141Z,75.41
2022-09-26T22:58:47.458Z,76.63
2022-09-26T23:01:18.683Z,79.35
2022-09-26T23:03:46.739Z,80.40
2022-09-26T23:06:14.890Z,78.56
2022-09-26T23:08:42.627Z,77.25
2022-09-26T23:11:11.981Z,79.31
2022-09-26T23:13:39.779Z,78.71
2022-09-26T23:16:13.410Z,76.21
2022-09-26T23:18:41.922Z,79.52
2022-09-26T23:21:12.157Z,79.74
2022-09-26T23:23:41.779Z,77.95
2022-09-26T23:26:31.257Z,75.43
2022-09-26T23:28:59.500Z,75.90
2022-09-26T23:31:28.586Z,77.08
2022-09-26T23:33:57.536Z,76.31
2022-09-26T23:36:25.421Z,76.56
2022-09-26T23:38:53.847Z,75.46
2022-09-26T23:41:21.746Z,74.59
2022-09-26T23:43:49.440Z,74.30
2022-09-26T23:46:17.756Z,73.69
2022-09-26T23:48:45.891Z,74.46
2022-09-26T23:51:13.904Z,74.05
2022-09-26T23:53:41.820Z,74.01
2022-09-26T23:56:12.006Z,74.33
2022-09-26T23:58:40.363Z,74.32
